Time;durP1;ratioP1;P1;durP2;ratioP2;P2;SDS_P1;SDS_P2;PMS_P1;PMS_P2;Temp;Humidity;BMP_temperature;BMP_pressure;BME280_temperature;BME280_humidity;BME280_pressure;Samples;Min_cycle;Max_cycle;Signal;HPM_P1;HPM_P2
2022/07/29 00:05:57;;;;;;;;;;;;;;;;;;;;;
2022/07/29 00:09:43;;;;;;;0.20;0.17;;;16.70;99.80;;;;;;6123095;23;20022;-92
2022/07/29 00:12:30;;;;;;;0.10;0.10;;;16.70;99.90;;;;;;6150277;23;20076;-91
2022/07/29 00:14:58;;;;;;;0.15;0.10;;;16.60;99.90;;;;;;6102865;23;20021;-90
2022/07/29 00:17:25;;;;;;;0.20;0.20;;;16.60;99.90;;;;;;6102464;23;20041;-89
2022/07/29 00:19:52;;;;;;;0.10;0.10;;;16.60;99.90;;;;;;6103795;23;20033;-90
2022/07/29 00:22:20;;;;;;;0.20;0.20;;;16.60;99.90;;;;;;6133360;23;20024;-90
2022/07/29 00:24:47;;;;;;;0.35;0.15;;;16.60;99.90;;;;;;6132182;23;20344;-91
2022/07/29 00:27:15;;;;;;;0.10;0.10;;;16.60;99.90;;;;;;6131116;23;20067;-90
2022/07/29 00:29:44;;;;;;;0.17;0.10;;;16.60;99.90;;;;;;6137420;23;20017;-93
2022/07/29 00:32:14;;;;;;;0.20;0.20;;;16.60;99.90;;;;;;6138577;23;20024;-89
2022/07/29 00:37:29;;;;;;;0.20;0.20;;;16.70;99.90;;;;;;6255315;22;20027;-89
2022/07/29 00:39:57;;;;;;;0.20;0.20;;;16.70;99.90;;;;;;6228217;22;20016;-89
2022/07/29 00:42:25;;;;;;;1.10;0.30;;;16.70;99.90;;;;;;6226762;22;20020;-90
2022/07/29 00:44:52;;;;;;;0.13;0.13;;;16.70;99.90;;;;;;6226820;22;20197;-90
2022/07/29 00:47:19;;;;;;;0.40;0.15;;;16.70;99.90;;;;;;6225860;22;20035;-90
2022/07/29 00:49:46;;;;;;;0.13;0.13;;;16.80;99.90;;;;;;6221877;22;20019;-89
2022/07/29 00:52:13;;;;;;;0.30;0.20;;;16.80;99.90;;;;;;6222297;22;20370;-90
2022/07/29 00:54:42;;;;;;;0.30;0.20;;;16.80;99.90;;;;;;6226694;22;20023;-89
2022/07/29 00:57:11;;;;;;;0.22;0.20;;;16.80;99.90;;;;;;6222324;22;20019;-87
2022/07/29 00:59:38;;;;;;;0.20;0.20;;;16.80;99.90;;;;;;6223709;22;20034;-89
2022/07/29 01:02:05;;;;;;;0.15;0.10;;;16.90;99.90;;;;;;6225083;22;20020;-87
2022/07/29 01:04:32;;;;;;;0.30;0.30;;;16.90;99.90;;;;;;6222724;22;20106;-88
2022/07/29 01:07:01;;;;;;;0.20;0.20;;;16.90;99.90;;;;;;6223771;22;20051;-89
2022/07/29 01:09:29;;;;;;;0.20;0.20;;;16.90;99.90;;;;;;6233569;22;20024;-89
2022/07/29 01:12:12;;;;;;;;;;;16.90;99.90;;;;;;6232559;22;20012;-87
2022/07/29 01:14:40;;;;;;;0.10;0.10;;;16.90;99.90;;;;;;6248144;22;19926;-89
2022/07/29 01:17:29;;;;;;;0.38;0.30;;;16.90;99.90;;;;;;6222351;22;20093;-90
2022/07/29 01:20:03;;;;;;;0.20;0.20;;;16.90;99.90;;;;;;6250752;22;20035;-88
2022/07/29 01:22:42;;;;;;;;;;;16.90;99.90;;;;;;6272944;22;20029;-88
2022/07/29 01:25:34;;;;;;;0.22;0.20;;;16.90;99.90;;;;;;6272585;22;20307;-88
2022/07/29 01:28:27;;;;;;;0.55;0.25;;;16.90;99.90;;;;;;6272483;22;20031;-87
2022/07/29 01:33:50;;;;;;;0.20;0.20;;;16.90;99.90;;;;;;6208628;22;20034;-87
2022/07/29 01:36:31;;;;;;;0.25;0.25;;;16.90;99.90;;;;;;6228722;22;20015;-89
2022/07/29 01:39:08;;;;;;;0.10;0.10;;;17.00;99.90;;;;;;6228560;22;20016;-91
2022/07/29 01:41:37;;;;;;;0.20;0.20;;;16.90;99.90;;;;;;6223434;22;20024;-91
2022/07/29 01:44:23;;;;;;;0.35;0.20;;;16.90;99.90;;;;;;6223810;22;20016;-89
2022/07/29 01:46:53;;;;;;;0.20;0.20;;;16.90;99.90;;;;;;6226635;22;20446;-89
2022/07/29 01:49:24;;;;;;;0.52;0.38;;;16.90;99.90;;;;;;6239269;22;20038;-89
2022/07/29 01:52:00;;;;;;;0.52;0.20;;;16.90;99.90;;;;;;6207322;22;20069;-88
2022/07/29 01:54:45;;;;;;;0.47;0.20;;;16.90;99.90;;;;;;6225374;22;20019;-89
2022/07/29 01:57:14;;;;;;;0.57;0.25;;;16.90;99.90;;;;;;6202025;22;20019;-92
2022/07/29 01:59:41;;;;;;;0.17;0.17;;;16.90;99.90;;;;;;6221582;22;20410;-91
2022/07/29 02:02:08;;;;;;;0.47;0.22;;;16.80;99.90;;;;;;6221552;22;20027;-90
2022/07/29 02:04:36;;;;;;;0.20;0.20;;;16.80;99.90;;;;;;6222876;22;20482;-90
2022/07/29 02:07:05;;;;;;;0.22;0.17;;;16.80;99.90;;;;;;6221912;22;20020;-89
2022/07/29 02:09:34;;;;;;;0.43;0.30;;;16.80;99.90;;;;;;6221774;22;20027;-88
2022/07/29 02:12:02;;;;;;;0.22;0.20;;;16.80;99.90;;;;;;6218313;22;20016;-90
2022/07/29 02:14:36;;;;;;;0.30;0.20;;;16.70;99.90;;;;;;6221490;22;20022;-89
2022/07/29 02:17:03;;;;;;;0.40;0.30;;;16.70;99.90;;;;;;6221449;22;20016;-90
2022/07/29 02:19:32;;;;;;;0.25;0.10;;;16.70;99.90;;;;;;6228812;22;20020;-88
2022/07/29 02:21:59;;;;;;;0.35;0.22;;;16.70;99.90;;;;;;6230882;22;20117;-87
2022/07/29 02:24:26;;;;;;;0.20;0.20;;;16.70;99.90;;;;;;6227175;22;20019;-94
2022/07/29 02:26:55;;;;;;;0.20;0.20;;;16.60;99.90;;;;;;6223597;22;20016;-93
2022/07/29 02:29:23;;;;;;;0.10;0.10;;;16.60;99.90;;;;;;6223672;22;20027;-89
2022/07/29 02:31:50;;;;;;;0.15;0.13;;;16.60;99.90;;;;;;6196615;22;20016;-90
2022/07/29 02:34:18;;;;;;;0.32;0.22;;;16.50;99.90;;;;;;6198191;23;20107;-91
2022/07/29 02:36:46;;;;;;;0.30;0.22;;;16.40;99.90;;;;;;6174100;23;20075;-90
2022/07/29 02:39:15;;;;;;;0.30;0.20;;;16.40;99.90;;;;;;6177242;23;20378;-91
2022/07/29 02:41:47;;;;;;;0.30;0.30;;;16.30;99.90;;;;;;6166138;23;20047;-89
2022/07/29 02:44:19;;;;;;;0.10;0.10;;;16.20;99.90;;;;;;6167499;23;20024;-90
2022/07/29 02:46:50;;;;;;;0.20;0.20;;;16.20;99.90;;;;;;6166432;23;20042;-90
2022/07/29 02:49:23;;;;;;;0.22;0.20;;;16.10;99.90;;;;;;6170548;23;20347;-90
2022/07/29 02:52:31;;;;;;;0.10;0.10;;;16.00;99.90;;;;;;6178523;23;20016;-92
2022/07/29 02:55:19;;;;;;;0.15;0.15;;;16.00;99.90;;;;;;6201868;23;20016;-90
2022/07/29 02:58:00;;;;;;;0.47;0.20;;;15.90;99.90;;;;;;6216012;23;20016;-89
2022/07/29 03:00:28;;;;;;;0.40;0.30;;;15.80;99.90;;;;;;6188758;23;20043;-89
2022/07/29 03:02:59;;;;;;;0.55;0.40;;;15.70;99.90;;;;;;6179764;23;20047;-90
2022/07/29 03:05:26;;;;;;;0.10;0.10;;;15.60;99.90;;;;;;6173396;23;20020;-91
2022/07/29 03:08:12;;;;;;;0.75;0.40;;;15.60;99.90;;;;;;6167804;23;20019;-91
2022/07/29 03:10:40;;;;;;;0.20;0.20;;;15.50;99.90;;;;;;6168507;23;20016;-89
2022/07/29 03:13:07;;;;;;;0.20;0.20;;;15.50;99.90;;;;;;6170408;23;20016;-91
2022/07/29 03:15:34;;;;;;;0.68;0.32;;;15.40;99.90;;;;;;6174947;23;20016;-88
2022/07/29 03:18:02;;;;;;;0.30;0.30;;;15.40;99.90;;;;;;6177144;23;20036;-88
2022/07/29 03:20:30;;;;;;;0.40;0.40;;;15.30;99.90;;;;;;6203258;23;20020;-89
2022/07/29 03:22:57;;;;;;;0.40;0.30;;;15.30;99.90;;;;;;6205200;23;20020;-91
2022/07/29 03:25:27;;;;;;;0.32;0.32;;;15.30;99.90;;;;;;6180178;23;20020;-89
2022/07/29 03:27:54;;;;;;;0.55;0.40;;;15.20;99.90;;;;;;6181608;23;20102;-88
2022/07/29 03:30:22;;;;;;;0.93;0.45;;;15.20;99.90;;;;;;6179459;23;20035;-89
2022/07/29 03:32:53;;;;;;;0.52;0.32;;;15.10;99.90;;;;;;6196976;23;20012;-91
2022/07/29 03:35:22;;;;;;;;;;;15.10;99.90;;;;;;6172486;23;20082;-89
2022/07/29 03:37:49;;;;;;;0.52;0.22;;;15.10;99.90;;;;;;6191762;23;19915;-90
2022/07/29 03:40:21;;;;;;;0.30;0.30;;;15.00;99.90;;;;;;6169471;23;20094;-91
2022/07/29 03:42:51;;;;;;;0.25;0.20;;;15.00;99.90;;;;;;6171935;23;20024;-88
2022/07/29 03:45:18;;;;;;;0.40;0.40;;;14.80;99.90;;;;;;6196409;23;20542;-89
2022/07/29 03:47:48;;;;;;;0.47;0.35;;;14.70;99.90;;;;;;6168975;23;20012;-89
2022/07/29 03:50:19;;;;;;;0.30;0.30;;;14.70;99.90;;;;;;6170290;23;20091;-90
2022/07/29 03:52:47;;;;;;;0.52;0.40;;;14.60;99.90;;;;;;6167427;23;20070;-89
2022/07/29 03:55:14;;;;;;;0.30;0.30;;;14.60;99.90;;;;;;6172870;23;20027;-90
2022/07/29 03:57:41;;;;;;;0.50;0.30;;;14.60;99.90;;;;;;6175887;23;20070;-90
2022/07/29 04:00:15;;;;;;;0.30;0.30;;;14.60;99.90;;;;;;6171725;23;20039;-89
2022/07/29 04:02:48;;;;;;;0.60;0.40;;;14.60;99.90;;;;;;6199000;23;20020;-91
2022/07/29 04:05:16;;;;;;;0.30;0.30;;;14.60;99.90;;;;;;6171121;23;20020;-89
2022/07/29 04:07:45;;;;;;;0.30;0.20;;;14.50;99.90;;;;;;6167842;23;20016;-90
2022/07/29 04:10:16;;;;;;;0.57;0.50;;;14.50;99.90;;;;;;6169372;23;20097;-90
2022/07/29 04:12:57;;;;;;;1.15;0.50;;;14.50;99.90;;;;;;6181075;23;20085;-90
2022/07/29 04:15:29;;;;;;;0.40;0.30;;;14.40;99.90;;;;;;6194574;23;20402;-90
2022/07/29 04:17:58;;;;;;;0.30;0.25;;;14.40;99.90;;;;;;6168995;23;20036;-92
2022/07/29 04:20:27;;;;;;;0.25;0.25;;;14.40;99.90;;;;;;6171403;23;20032;-88
2022/07/29 04:22:55;;;;;;;0.70;0.22;;;14.40;99.90;;;;;;6171389;23;20123;-89
2022/07/29 04:25:22;;;;;;;0.47;0.47;;;14.40;99.90;;;;;;6171806;23;20031;-89
2022/07/29 04:28:02;;;;;;;0.57;0.55;;;14.50;99.90;;;;;;6178286;23;20024;-86
2022/07/29 04:30:30;;;;;;;0.40;0.40;;;14.40;99.90;;;;;;6177450;23;20020;-89
2022/07/29 04:32:57;;;;;;;0.40;0.40;;;14.40;99.90;;;;;;6168589;23;20359;-89
2022/07/29 04:35:24;;;;;;;0.65;0.45;;;14.40;99.90;;;;;;6168322;23;20031;-90
2022/07/29 04:37:51;;;;;;;0.40;0.40;;;14.40;99.90;;;;;;6167930;23;20042;-88
2022/07/29 04:40:18;;;;;;;0.65;0.30;;;14.40;99.90;;;;;;6169329;23;20016;-88
2022/07/29 04:42:45;;;;;;;0.50;0.40;;;14.50;99.90;;;;;;6169618;23;20064;-91
2022/07/29 04:45:15;;;;;;;0.68;0.30;;;14.50;99.90;;;;;;6176084;23;20363;-89
2022/07/29 04:47:49;;;;;;;0.32;0.30;;;14.40;99.90;;;;;;6181246;23;20016;-91
2022/07/29 04:50:18;;;;;;;0.30;0.30;;;14.40;99.90;;;;;;6176719;23;20577;-93
2022/07/29 04:52:45;;;;;;;0.28;0.20;;;14.40;99.90;;;;;;6176483;23;20026;-91
2022/07/29 04:55:12;;;;;;;0.38;0.38;;;14.40;99.90;;;;;;6174301;23;20095;-91
2022/07/29 04:57:41;;;;;;;0.40;0.38;;;14.40;99.90;;;;;;6180752;23;20092;-91
2022/07/29 05:00:11;;;;;;;0.30;0.30;;;14.40;99.90;;;;;;6183238;23;20115;-90
2022/07/29 05:02:39;;;;;;;0.50;0.50;;;14.40;99.90;;;;;;6176025;23;20016;-91
2022/07/29 05:05:07;;;;;;;0.60;0.30;;;14.50;99.90;;;;;;6172820;23;20047;-90
2022/07/29 05:07:34;;;;;;;0.50;0.40;;;14.60;99.90;;;;;;6169926;23;20171;-91
2022/07/29 05:10:01;;;;;;;0.30;0.30;;;14.60;99.90;;;;;;6167363;23;20032;-92
2022/07/29 05:12:29;;;;;;;0.43;0.40;;;14.60;99.90;;;;;;6167685;23;20344;-88
2022/07/29 05:14:56;;;;;;;0.40;0.40;;;14.70;99.90;;;;;;6170664;23;20016;-88
2022/07/29 05:17:23;;;;;;;0.50;0.43;;;14.80;99.90;;;;;;6169222;23;20017;-90
2022/07/29 05:19:51;;;;;;;0.60;0.40;;;14.80;99.90;;;;;;6172571;23;20087;-88
2022/07/29 05:22:19;;;;;;;0.30;0.30;;;14.90;99.90;;;;;;6174915;23;20020;-88
2022/07/29 05:24:46;;;;;;;0.40;0.22;;;15.00;99.90;;;;;;6178308;23;20064;-90
2022/07/29 05:27:14;;;;;;;0.30;0.30;;;15.10;99.90;;;;;;6179652;23;20111;-90
2022/07/29 05:29:41;;;;;;;0.57;0.40;;;15.10;99.90;;;;;;6177858;23;20020;-88
2022/07/29 05:32:12;;;;;;;0.77;0.40;;;15.10;99.90;;;;;;6174278;23;20016;-89
2022/07/29 05:34:39;;;;;;;0.95;0.47;;;15.20;99.90;;;;;;6169112;23;20032;-88
2022/07/29 05:37:18;;;;;;;0.75;0.30;;;15.30;99.90;;;;;;6173291;23;20070;-88
2022/07/29 05:39:46;;;;;;;0.60;0.43;;;15.40;99.90;;;;;;6169164;23;20039;-87
2022/07/29 05:42:22;;;;;;;0.73;0.50;;;15.50;99.90;;;;;;6173084;23;20016;-89
2022/07/29 05:44:49;;;;;;;0.40;0.40;;;15.60;99.90;;;;;;6168493;23;20016;-88
2022/07/29 05:47:16;;;;;;;0.80;0.50;;;15.70;99.90;;;;;;6165525;23;20016;-89
2022/07/29 05:49:43;;;;;;;0.73;0.50;;;15.70;99.90;;;;;;6166559;23;20031;-88
2022/07/29 05:52:10;;;;;;;0.30;0.30;;;15.90;99.90;;;;;;6169271;23;20078;-88
2022/07/29 05:54:37;;;;;;;0.30;0.30;;;16.00;99.90;;;;;;6172808;23;20099;-88
2022/07/29 05:57:05;;;;;;;0.50;0.35;;;16.20;99.90;;;;;;6167548;23;20020;-92
2022/07/29 05:59:36;;;;;;;0.50;0.30;;;16.40;99.90;;;;;;6166348;23;20398;-91
2022/07/29 06:02:04;;;;;;;0.32;0.32;;;16.50;99.90;;;;;;6162636;23;20022;-89
2022/07/29 06:04:33;;;;;;;0.52;0.30;;;16.60;99.90;;;;;;6172818;23;20019;-88
2022/07/29 06:07:01;;;;;;;0.40;0.40;;;16.70;99.90;;;;;;6171758;23;20267;-89
2022/07/29 06:09:28;;;;;;;0.45;0.32;;;16.80;99.90;;;;;;6169432;23;20102;-93
2022/07/29 06:11:56;;;;;;;0.60;0.43;;;17.00;99.90;;;;;;6168828;23;20020;-89
2022/07/29 06:14:22;;;;;;;0.40;0.20;;;17.10;99.90;;;;;;6168091;23;20036;-88
2022/07/29 06:16:49;;;;;;;0.30;0.30;;;17.30;99.90;;;;;;6168002;23;20020;-90
2022/07/29 06:19:17;;;;;;;0.80;0.30;;;17.40;99.90;;;;;;6168678;23;20063;-92
2022/07/29 06:21:46;;;;;;;0.52;0.30;;;17.60;99.90;;;;;;6175689;23;20035;-90
2022/07/29 06:24:14;;;;;;;1.27;0.50;;;17.70;99.90;;;;;;6175385;23;20203;-91
2022/07/29 06:26:45;;;;;;;0.60;0.30;;;17.80;99.90;;;;;;6181721;23;20012;-90
2022/07/29 06:29:16;;;;;;;0.40;0.40;;;17.90;99.90;;;;;;6188848;23;20020;-90
2022/07/29 06:31:44;;;;;;;0.40;0.40;;;18.00;99.90;;;;;;6176293;23;20016;-90
2022/07/29 06:34:11;;;;;;;0.45;0.43;;;18.10;99.90;;;;;;6178290;23;20028;-92
2022/07/29 06:36:39;;;;;;;0.57;0.50;;;18.10;99.90;;;;;;6175270;23;20027;-92
2022/07/29 06:39:09;;;;;;;1.08;0.70;;;18.20;99.90;;;;;;6173649;23;20019;-92
2022/07/29 06:41:38;;;;;;;1.17;0.50;;;18.30;99.90;;;;;;6170573;23;20020;-92
2022/07/29 06:44:05;;;;;;;0.80;0.45;;;18.50;99.90;;;;;;6166297;23;20110;-93
2022/07/29 06:46:32;;;;;;;0.47;0.35;;;18.60;99.90;;;;;;6161489;23;20130;-92
2022/07/29 06:49:04;;;;;;;0.60;0.50;;;18.70;99.90;;;;;;6160668;23;20532;-94
2022/07/29 06:51:34;;;;;;;0.45;0.20;;;18.90;99.90;;;;;;6188178;23;20020;-94
2022/07/29 06:54:07;;;;;;;0.40;0.30;;;19.00;99.90;;;;;;6162024;23;20094;-94
2022/07/29 06:56:37;;;;;;;0.95;0.50;;;19.10;99.90;;;;;;6161336;23;20099;-92
2022/07/29 06:59:18;;;;;;;0.50;0.40;;;19.30;99.90;;;;;;6171963;23;20086;-91
2022/07/29 07:01:59;;;;;;;1.17;0.60;;;19.30;99.90;;;;;;6169234;23;20020;-92
2022/07/29 07:04:47;;;;;;;0.30;0.30;;;19.50;99.90;;;;;;6163272;23;20099;-91
2022/07/29 07:07:15;;;;;;;0.55;0.40;;;19.60;99.90;;;;;;6192595;23;20038;-92
2022/07/29 07:09:43;;;;;;;0.30;0.30;;;19.70;99.90;;;;;;6165691;23;20020;-92
2022/07/29 07:12:11;;;;;;;0.45;0.30;;;19.80;99.90;;;;;;6162272;23;20043;-91
2022/07/29 07:14:40;;;;;;;0.75;0.20;;;20.00;99.90;;;;;;6162542;23;20107;-92
2022/07/29 07:17:07;;;;;;;0.47;0.20;;;20.00;99.90;;;;;;6160389;23;20026;-92
2022/07/29 07:19:34;;;;;;;0.80;0.47;;;20.00;99.90;;;;;;6159820;23;20058;-93
2022/07/29 07:22:04;;;;;;;1.15;0.50;;;20.00;99.90;;;;;;6159144;23;20046;-92
2022/07/29 07:24:34;;;;;;;0.68;0.60;;;19.90;99.90;;;;;;6163180;23;20153;-93
2022/07/29 07:27:06;;;;;;;0.40;0.30;;;19.70;99.90;;;;;;6161587;23;20030;-93
2022/07/29 07:29:33;;;;;;;1.10;0.50;;;19.70;99.90;;;;;;6163945;23;20038;-92
2022/07/29 07:32:00;;;;;;;0.68;0.40;;;19.70;99.90;;;;;;6161048;23;20031;-92
2022/07/29 07:34:30;;;;;;;0.98;0.52;;;19.60;99.90;;;;;;6161053;23;20100;-93
2022/07/29 07:36:57;;;;;;;1.10;0.50;;;19.50;99.90;;;;;;6161195;23;20414;-93
2022/07/29 07:39:25;;;;;;;0.40;0.40;;;19.40;99.90;;;;;;6161372;23;20098;-91
2022/07/29 07:41:52;;;;;;;0.57;0.40;;;19.40;99.90;;;;;;6166288;23;20513;-91
2022/07/29 07:44:22;;;;;;;0.75;0.70;;;19.30;99.90;;;;;;6174584;23;20016;-92
2022/07/29 07:46:51;;;;;;;0.50;0.38;;;19.30;99.90;;;;;;6170316;23;20031;-92
2022/07/29 07:49:18;;;;;;;0.30;0.30;;;19.30;99.90;;;;;;6165883;23;20020;-92
2022/07/29 07:51:55;;;;;;;0.40;0.40;;;19.40;99.90;;;;;;6168881;23;20095;-93
2022/07/29 07:54:22;;;;;;;0.40;0.40;;;19.40;99.90;;;;;;6173186;23;20091;-92
2022/07/29 07:56:49;;;;;;;1.15;0.50;;;19.40;99.90;;;;;;6170571;23;20047;-92
2022/07/29 07:59:21;;;;;;;0.70;0.50;;;19.40;99.90;;;;;;6177548;23;20024;-91
2022/07/29 08:01:48;;;;;;;0.50;0.50;;;19.50;99.90;;;;;;6165051;23;20020;-94
2022/07/29 08:04:24;;;;;;;0.73;0.60;;;19.50;99.90;;;;;;6174103;23;20056;-94
2022/07/29 08:06:55;;;;;;;2.55;0.75;;;19.60;99.90;;;;;;6171838;23;20016;-92
2022/07/29 08:09:29;;;;;;;0.77;0.43;;;19.70;99.90;;;;;;6171429;23;20259;-95
2022/07/29 08:11:59;;;;;;;1.38;0.40;;;19.70;99.90;;;;;;6181306;23;20283;-94
2022/07/29 08:14:33;;;;;;;1.45;0.52;;;19.80;99.90;;;;;;6191838;23;20023;-93
2022/07/29 08:22:23;;;;;;;0.30;0.30;;;19.80;99.90;;;;;;6237966;22;20358;-77
2022/07/29 08:24:54;;;;;;;0.85;0.65;;;19.90;99.90;;;;;;6239513;22;20054;-78
2022/07/29 08:27:21;;;;;;;0.68;0.30;;;19.90;99.90;;;;;;6291003;22;20529;-76
2022/07/29 08:30:09;;;;;;;0.65;0.30;;;19.90;99.90;;;;;;6291493;22;20027;-78
2022/07/29 08:32:37;;;;;;;1.25;0.43;;;20.00;99.90;;;;;;6239386;22;20402;-77
2022/07/29 08:35:22;;;;;;;0.40;0.30;;;19.90;99.90;;;;;;6247135;22;20080;-77
2022/07/29 08:37:49;;;;;;;0.20;0.20;;;20.00;99.90;;;;;;6214734;22;20041;-78
2022/07/29 08:40:16;;;;;;;0.20;0.20;;;20.00;99.90;;;;;;6265022;22;20517;-77
2022/07/29 08:42:43;;;;;;;0.77;0.40;;;20.10;99.90;;;;;;6263982;22;20023;-76
2022/07/29 08:45:10;;;;;;;0.22;0.20;;;20.00;99.90;;;;;;6264961;22;20027;-76
2022/07/29 08:47:40;;;;;;;0.20;0.20;;;20.00;99.90;;;;;;6291693;22;20072;-77
2022/07/29 08:50:08;;;;;;;0.60;0.40;;;20.00;99.30;;;;;;6265887;22;20027;-76
2022/07/29 08:52:41;;;;;;;0.38;0.30;;;20.10;99.90;;;;;;6239904;22;20502;-77
2022/07/29 08:55:08;;;;;;;1.17;0.35;;;20.10;99.90;;;;;;6214525;22;20059;-77
2022/07/29 08:57:35;;;;;;;0.25;0.25;;;20.10;99.40;;;;;;6213391;22;20445;-77
2022/07/29 09:00:06;;;;;;;0.52;0.30;;;20.10;98.70;;;;;;6290944;22;20027;-76
2022/07/29 09:02:41;;;;;;;0.52;0.40;;;20.20;99.50;;;;;;6235355;22;20020;-76
2022/07/29 09:05:12;;;;;;;1.23;0.38;;;20.20;98.80;;;;;;6210798;22;20032;-76
2022/07/29 09:07:39;;;;;;;0.57;0.38;;;20.20;99.90;;;;;;6261161;22;20382;-76
2022/07/29 09:10:06;;;;;;;0.88;0.47;;;20.30;98.60;;;;;;6184049;22;20383;-77
2022/07/29 09:12:33;;;;;;;0.80;0.35;;;20.40;98.30;;;;;;6207317;22;20024;-77
2022/07/29 09:15:04;;;;;;;0.32;0.30;;;20.50;98.60;;;;;;6209756;22;20099;-77
2022/07/29 09:18:00;;;;;;;1.58;0.40;;;20.50;98.30;;;;;;6259843;22;20163;-77
2022/07/29 09:21:57;;;;;;;0.20;0.20;;;20.60;98.20;;;;;;6203556;22;20419;-77
2022/07/29 09:23:14;;;;;;;0.38;0.30;;;20.70;97.80;;;;;;6239232;22;20518;-77
2022/07/29 09:25:50;;;;;;;0.85;0.40;;;20.70;98.70;;;;;;6214651;22;20022;-77
2022/07/29 09:28:17;;;;;;;0.70;0.40;;;20.70;98.00;;;;;;6209814;22;20553;-77
2022/07/29 09:31:02;;;;;;;0.40;0.40;;;20.80;97.80;;;;;;6210043;22;20063;-77
2022/07/29 09:33:34;;;;;;;0.30;0.30;;;20.90;96.50;;;;;;6212107;22;20020;-77
2022/07/29 09:36:08;;;;;;;0.32;0.32;;;21.00;95.20;;;;;;6235932;22;20028;-77
2022/07/29 09:38:36;;;;;;;1.02;0.40;;;21.00;96.50;;;;;;6211113;22;20107;-76
2022/07/29 09:41:03;;;;;;;0.30;0.30;;;21.00;95.80;;;;;;6262675;22;20031;-75
2022/07/29 09:43:32;;;;;;;1.15;0.40;;;21.00;96.20;;;;;;6211086;22;20019;-77
2022/07/29 09:46:15;;;;;;;0.60;0.35;;;21.10;95.80;;;;;;6209725;22;20066;-77
2022/07/29 09:48:42;;;;;;;;;;;21.10;94.90;;;;;;6210486;22;20031;-78
2022/07/29 09:51:19;;;;;;;0.30;0.30;;;21.20;95.00;;;;;;6262331;22;19997;-77
2022/07/29 09:53:54;;;;;;;1.13;1.00;;;21.20;95.50;;;;;;6237171;22;20027;-78
2022/07/29 09:56:25;;;;;;;1.30;0.80;;;21.30;95.60;;;;;;6235718;22;20027;-77
2022/07/29 09:59:05;;;;;;;2.28;0.90;;;21.40;95.70;;;;;;6210879;22;20474;-77
2022/07/29 10:01:32;;;;;;;1.23;0.68;;;21.50;95.30;;;;;;6208635;22;20023;-76
2022/07/29 10:03:58;;;;;;;0.60;0.50;;;21.60;94.70;;;;;;6209201;22;20065;-77
2022/07/29 10:06:25;;;;;;;0.52;0.50;;;21.60;94.50;;;;;;6262285;22;20019;-76
2022/07/29 10:08:52;;;;;;;0.40;0.40;;;21.70;95.40;;;;;;6234611;22;20368;-77
2022/07/29 10:11:19;;;;;;;0.63;0.40;;;21.80;95.20;;;;;;6209759;22;20424;-76
2022/07/29 10:13:47;;;;;;;0.68;0.30;;;21.90;95.20;;;;;;6234003;22;20055;-76
2022/07/29 10:16:15;;;;;;;0.80;0.52;;;22.00;94.60;;;;;;6210132;22;20030;-77
2022/07/29 10:18:43;;;;;;;0.43;0.40;;;22.10;94.10;;;;;;6210474;22;20494;-77
2022/07/29 10:21:10;;;;;;;0.77;0.40;;;22.20;94.40;;;;;;6210730;22;20028;-77
2022/07/29 10:23:57;;;;;;;0.40;0.40;;;22.30;93.20;;;;;;6239222;22;20026;-78
2022/07/29 10:26:27;;;;;;;0.30;0.20;;;22.30;93.30;;;;;;6235806;22;20619;-77
2022/07/29 10:28:55;;;;;;;0.30;0.30;;;22.40;93.40;;;;;;6232931;22;20094;-77
2022/07/29 10:31:29;;;;;;;0.30;0.30;;;22.50;93.80;;;;;;6234448;22;20028;-77
2022/07/29 10:34:17;;;;;;;0.85;0.40;;;22.60;92.90;;;;;;6211004;22;20097;-78
2022/07/29 10:37:02;;;;;;;0.40;0.40;;;22.60;91.70;;;;;;6187094;22;20103;-78
2022/07/29 10:39:53;;;;;;;0.65;0.43;;;22.70;91.90;;;;;;6236164;22;20031;-78
2022/07/29 10:42:22;;;;;;;0.98;0.50;;;22.80;91.90;;;;;;6234730;22;20023;-78
2022/07/29 10:45:00;;;;;;;0.60;0.40;;;22.90;91.00;;;;;;6216138;22;20085;-77
2022/07/29 10:47:26;;;;;;;0.90;0.30;;;22.90;90.60;;;;;;6234683;22;20024;-76
2022/07/29 10:49:58;;;;;;;1.38;0.20;;;22.90;91.00;;;;;;6262792;22;20469;-77
2022/07/29 10:52:49;;;;;;;0.70;0.47;;;22.90;91.30;;;;;;6235988;22;20042;-77
2022/07/29 10:55:38;;;;;;;0.47;0.38;;;22.90;90.10;;;;;;6261487;22;20031;-78
2022/07/29 10:58:18;;;;;;;0.30;0.30;;;22.90;90.70;;;;;;6235288;22;20349;-77
2022/07/29 11:00:49;;;;;;;0.70;0.40;;;22.90;90.20;;;;;;6260894;22;20023;-78
2022/07/29 11:03:51;;;;;;;0.77;0.40;;;22.90;89.70;;;;;;6233795;22;20273;-78
2022/07/29 11:06:25;;;;;;;0.20;0.20;;;23.10;90.80;;;;;;6174836;22;20024;-77
2022/07/29 11:09:19;;;;;;;1.23;0.50;;;23.30;90.40;;;;;;6211078;22;20051;-77
2022/07/29 11:12:38;;;;;;;0.68;0.30;;;23.40;90.30;;;;;;6260678;22;20026;-77
2022/07/29 11:15:12;;;;;;;0.70;0.40;;;23.60;89.40;;;;;;6203388;22;20024;-77
2022/07/29 11:17:56;;;;;;;0.30;0.30;;;23.70;87.90;;;;;;6212196;22;20023;-77
2022/07/29 11:20:38;;;;;;;0.82;0.40;;;23.90;85.90;;;;;;6235142;22;20138;-76
2022/07/29 11:23:31;;;;;;;0.30;0.30;;;24.00;85.40;;;;;;6261533;22;20024;-77
2022/07/29 11:26:13;;;;;;;0.40;0.30;;;24.10;83.60;;;;;;6262080;22;20455;-76
2022/07/29 11:28:50;;;;;;;0.20;0.20;;;24.30;85.10;;;;;;6235908;22;20023;-77
2022/07/29 11:31:50;;;;;;;0.40;0.40;;;24.50;82.80;;;;;;6233878;22;20846;-78
2022/07/29 11:34:29;;;;;;;0.30;0.30;;;24.60;81.10;;;;;;6237795;22;20020;-79
2022/07/29 11:37:12;;;;;;;0.57;0.40;;;24.70;79.50;;;;;;6185897;22;20024;-77
2022/07/29 11:39:40;;;;;;;0.38;0.17;;;24.80;80.20;;;;;;6261838;22;20089;-77
2022/07/29 11:42:16;;;;;;;0.20;0.20;;;25.10;79.70;;;;;;6209220;22;20031;-77
2022/07/29 11:44:56;;;;;;;0.20;0.20;;;25.40;78.80;;;;;;6261474;22;20031;-76
2022/07/29 11:47:24;;;;;;;0.35;0.30;;;25.80;78.10;;;;;;6260204;22;20489;-77
2022/07/29 11:49:54;;;;;;;0.30;0.30;;;26.20;77.10;;;;;;6235365;22;20845;-76
2022/07/29 11:52:46;;;;;;;0.47;0.30;;;26.40;78.40;;;;;;6212319;22;20083;-77
2022/07/29 12:08:40;;;;;;;0.30;0.30;;;27.10;74.20;;;;;;6203643;22;1699047;-79
2022/07/29 12:11:15;;;;;;;0.40;0.40;;;27.70;72.10;;;;;;6188435;23;20293;-78
2022/07/29 12:13:42;;;;;;;0.30;0.30;;;28.10;71.60;;;;;;6212543;23;20453;-79
2022/07/29 12:16:10;;;;;;;0.40;0.40;;;28.30;70.70;;;;;;6212228;23;20031;-77
2022/07/29 12:18:40;;;;;;;0.68;0.60;;;28.50;71.20;;;;;;6239844;22;20059;-76
2022/07/29 12:21:08;;;;;;;0.73;0.63;;;28.70;70.20;;;;;;6236835;23;20020;-74
2022/07/29 12:23:38;;;;;;;0.73;0.50;;;28.50;70.40;;;;;;6238976;22;20028;-77
2022/07/29 12:26:05;;;;;;;1.05;0.80;;;28.80;69.70;;;;;;6211912;23;20055;-77
2022/07/29 12:28:38;;;;;;;1.52;0.45;;;29.00;69.50;;;;;;6212167;23;20030;-77
2022/07/29 12:31:04;;;;;;;0.55;0.40;;;29.40;67.90;;;;;;6187617;23;20419;-77
2022/07/29 12:33:34;;;;;;;0.35;0.30;;;29.90;68.10;;;;;;6187651;23;20027;-77
2022/07/29 12:36:01;;;;;;;0.50;0.40;;;29.60;68.30;;;;;;6238096;23;20032;-77
2022/07/29 12:38:36;;;;;;;0.93;0.40;;;29.50;68.10;;;;;;6237768;23;20767;-77
2022/07/29 12:41:03;;;;;;;0.47;0.30;;;30.00;67.70;;;;;;6237442;23;20023;-76
2022/07/29 12:43:31;;;;;;;0.35;0.35;;;30.70;65.90;;;;;;6211910;23;22030;-77
2022/07/29 12:45:57;;;;;;;0.20;0.20;;;31.40;64.70;;;;;;6236658;23;20063;-77
2022/07/29 12:48:34;;;;;;;0.30;0.30;;;31.80;64.20;;;;;;6212085;23;20078;-77
2022/07/29 12:51:02;;;;;;;0.55;0.55;;;31.90;62.40;;;;;;6237513;23;20027;-76
2022/07/29 12:53:29;;;;;;;0.55;0.50;;;32.10;61.60;;;;;;6212393;23;20786;-78
2022/07/29 12:55:56;;;;;;;0.60;0.60;;;32.40;62.10;;;;;;6212268;23;20347;-77
2022/07/29 12:58:27;;;;;;;0.47;0.45;;;32.10;61.00;;;;;;6212126;23;20015;-77
2022/07/29 13:01:14;;;;;;;0.30;0.20;;;32.10;60.10;;;;;;6236555;23;20028;-77
2022/07/29 13:03:54;;;;;;;0.40;0.40;;;31.20;60.70;;;;;;6217689;23;20724;-77
2022/07/29 13:06:43;;;;;;;0.43;0.40;;;30.20;61.80;;;;;;6153506;23;20021;-77
2022/07/29 13:09:15;;;;;;;0.52;0.50;;;30.10;63.00;;;;;;6175494;23;20067;-77
2022/07/29 13:11:44;;;;;;;0.73;0.45;;;30.80;62.30;;;;;;6198745;23;20025;-77
2022/07/29 13:14:30;;;;;;;0.40;0.30;;;31.50;60.60;;;;;;6202113;23;20072;-77
2022/07/29 13:17:13;;;;;;;0.43;0.43;;;32.10;61.10;;;;;;6198983;23;20052;-77
2022/07/29 13:19:43;;;;;;;0.50;0.50;;;32.80;59.30;;;;;;6175429;23;20028;-76
2022/07/29 13:22:15;;;;;;;0.35;0.35;;;33.10;58.60;;;;;;6199862;23;20044;-76
2022/07/29 13:24:52;;;;;;;0.22;0.22;;;33.30;58.80;;;;;;6200028;23;20744;-78
2022/07/29 13:27:19;;;;;;;1.13;0.63;;;33.90;57.90;;;;;;6174764;23;20094;-76
2022/07/29 13:29:47;;;;;;;0.40;0.30;;;33.80;58.80;;;;;;6200947;23;20079;-76
2022/07/29 13:32:13;;;;;;;1.17;0.63;;;34.50;57.30;;;;;;6173625;23;20055;-77
2022/07/29 13:34:40;;;;;;;0.70;0.57;;;34.70;57.70;;;;;;6175694;23;20086;-77
2022/07/29 13:37:07;;;;;;;0.73;0.50;;;35.10;56.00;;;;;;6200295;23;20128;-78
2022/07/29 13:39:34;;;;;;;0.40;0.40;;;34.50;56.20;;;;;;6200144;23;20502;-76
2022/07/29 13:42:01;;;;;;;0.40;0.40;;;34.60;56.40;;;;;;6149760;23;20106;-77